Time;durP1;ratioP1;P1;durP2;ratioP2;P2;SDS_P1;SDS_P2;PMS_P1;PMS_P2;Temp;Humidity;BMP_temperature;BMP_pressure;BME280_temperature;BME280_humidity;BME280_pressure;Samples;Min_cycle;Max_cycle;Signal;HPM_P1;HPM_P2
2023/09/25 00:01:28;;;;;;;6.13;2.90;;;;;;;;;;4990756;28;20739;-79
2023/09/25 00:03:55;;;;;;;5.67;3.20;;;;;;;;;;4991548;28;20205;-79
2023/09/25 00:06:24;;;;;;;6.80;3.17;;;;;;;;;;4991690;28;20226;-79
2023/09/25 00:08:51;;;;;;;4.97;2.90;;;;;;;;;;4991632;28;20285;-78
2023/09/25 00:11:18;;;;;;;5.03;3.50;;;;;;;;;;4991399;28;20202;-79
2023/09/25 00:13:47;;;;;;;5.40;2.97;;;;;;;;;;4991521;28;20619;-78
2023/09/25 00:16:14;;;;;;;6.00;3.43;;;;;;;;;;4990777;28;20198;-78
2023/09/25 00:18:42;;;;;;;5.87;3.37;;;;;;;;;;4991292;28;20202;-79
2023/09/25 00:21:12;;;;;;;4.60;3.00;;;;;;;;;;4991795;28;20202;-78
2023/09/25 00:23:39;;;;;;;3.87;2.80;;;;;;;;;;4990834;28;20237;-77
2023/09/25 00:26:07;;;;;;;4.73;2.90;;;;;;;;;;4991228;28;20202;-77
2023/09/25 00:28:34;;;;;;;5.23;3.30;;;;;;;;;;4991336;28;20229;-78
2023/09/25 00:31:03;;;;;;;6.10;3.13;;;;;;;;;;4990329;28;20712;-78
2023/09/25 00:33:30;;;;;;;6.03;3.10;;;;;;;;;;4990987;28;20206;-78
2023/09/25 00:35:57;;;;;;;4.53;2.90;;;;;;;;;;4991257;28;20221;-78
2023/09/25 00:38:24;;;;;;;4.13;2.70;;;;;;;;;;4992103;28;20201;-77
2023/09/25 00:40:52;;;;;;;6.53;3.47;;;;;;;;;;4994637;28;20237;-78
2023/09/25 00:43:19;;;;;;;5.53;3.10;;;;;;;;;;4994685;28;20712;-79
2023/09/25 00:45:48;;;;;;;6.83;3.20;;;;;;;;;;4994411;28;20232;-78
2023/09/25 00:48:25;;;;;;;4.60;3.00;;;;;;;;;;4994317;28;20198;-78
2023/09/25 00:50:53;;;;;;;6.13;3.20;;;;;;;;;;4994252;28;20205;-78
2023/09/25 00:53:21;;;;;;;7.63;3.13;;;;;;;;;;4994422;28;20206;-78
2023/09/25 00:55:48;;;;;;;5.87;2.90;;;;;;;;;;4994476;28;20237;-79
2023/09/25 00:58:15;;;;;;;5.40;3.03;;;;;;;;;;4994190;28;20351;-79
2023/09/25 01:00:44;;;;;;;4.90;3.10;;;;;;;;;;4994030;28;20692;-78
2023/09/25 01:03:12;;;;;;;6.47;3.07;;;;;;;;;;4994617;28;20225;-78
2023/09/25 01:05:41;;;;;;;5.53;2.97;;;;;;;;;;4994313;28;20201;-77
2023/09/25 01:08:09;;;;;;;8.03;3.00;;;;;;;;;;4994679;28;20226;-78
2023/09/25 01:10:38;;;;;;;8.90;3.10;;;;;;;;;;4994003;28;20213;-78
2023/09/25 01:13:05;;;;;;;6.73;3.40;;;;;;;;;;4993801;28;20194;-77
2023/09/25 01:15:33;;;;;;;6.90;3.47;;;;;;;;;;4993839;28;20202;-78
2023/09/25 01:18:00;;;;;;;14.33;3.47;;;;;;;;;;4994388;28;20206;-78
2023/09/25 01:20:27;;;;;;;6.70;3.30;;;;;;;;;;4994228;28;20735;-78
2023/09/25 01:22:56;;;;;;;6.13;2.90;;;;;;;;;;4993554;28;20241;-78
2023/09/25 01:25:24;;;;;;;7.10;3.27;;;;;;;;;;4993708;28;20209;-77
2023/09/25 01:27:51;;;;;;;7.03;3.40;;;;;;;;;;4993732;28;20661;-78
2023/09/25 01:30:19;;;;;;;7.70;3.27;;;;;;;;;;4993331;28;20205;-79
2023/09/25 01:32:48;;;;;;;5.20;2.93;;;;;;;;;;4990330;28;20233;-76
2023/09/25 01:35:17;;;;;;;5.53;3.10;;;;;;;;;;4983453;28;20210;-77
2023/09/25 01:37:45;;;;;;;7.27;3.50;;;;;;;;;;4974263;28;20238;-77
2023/09/25 01:40:17;;;;;;;5.17;3.10;;;;;;;;;;4974005;28;20677;-78
2023/09/25 01:42:45;;;;;;;6.50;3.50;;;;;;;;;;4973408;28;20317;-76
2023/09/25 01:45:13;;;;;;;5.23;3.20;;;;;;;;;;4974786;28;20720;-77
2023/09/25 01:47:42;;;;;;;4.20;3.13;;;;;;;;;;4973824;28;20257;-78
2023/09/25 01:50:11;;;;;;;7.10;3.60;;;;;;;;;;4973195;28;20205;-78
2023/09/25 01:52:38;;;;;;;5.07;3.20;;;;;;;;;;4974153;28;20202;-78
2023/09/25 01:55:05;;;;;;;5.90;3.30;;;;;;;;;;4973778;28;20213;-78
2023/09/25 01:57:35;;;;;;;5.63;3.10;;;;;;;;;;4973780;28;20428;-77
2023/09/25 02:00:09;;;;;;;5.68;3.40;;;;;;;;;;4973818;28;20213;-78
2023/09/25 02:02:37;;;;;;;4.47;3.00;;;;;;;;;;4973334;28;20236;-79
2023/09/25 02:05:05;;;;;;;7.60;3.60;;;;;;;;;;4974217;28;20206;-78
2023/09/25 02:07:32;;;;;;;5.27;3.20;;;;;;;;;;4973842;28;20198;-77
2023/09/25 02:10:00;;;;;;;4.60;2.97;;;;;;;;;;4973517;28;20582;-78
2023/09/25 02:12:27;;;;;;;4.10;3.25;;;;;;;;;;4973055;28;20301;-78
2023/09/25 02:14:59;;;;;;;6.00;3.67;;;;;;;;;;4973395;28;20627;-78
2023/09/25 02:17:27;;;;;;;5.00;3.20;;;;;;;;;;4975652;28;20199;-78
2023/09/25 02:19:55;;;;;;;6.55;3.33;;;;;;;;;;4992834;28;20198;-79
2023/09/25 02:22:22;;;;;;;5.00;3.20;;;;;;;;;;4992285;28;20288;-79
2023/09/25 02:24:49;;;;;;;5.93;3.10;;;;;;;;;;4992610;28;20202;-79
2023/09/25 02:27:16;;;;;;;7.33;3.03;;;;;;;;;;4992263;28;20198;-78
2023/09/25 02:29:44;;;;;;;5.83;3.40;;;;;;;;;;4992636;28;20673;-77
2023/09/25 02:32:12;;;;;;;7.10;3.80;;;;;;;;;;4992707;28;20202;-78
2023/09/25 02:34:39;;;;;;;6.30;3.43;;;;;;;;;;4992633;28;20202;-78
2023/09/25 02:37:07;;;;;;;6.87;3.67;;;;;;;;;;4992676;28;20281;-78
2023/09/25 02:39:34;;;;;;;6.97;3.40;;;;;;;;;;4992596;28;20573;-77
2023/09/25 02:42:01;;;;;;;7.13;3.70;;;;;;;;;;4992146;28;20297;-78
2023/09/25 02:44:28;;;;;;;8.25;3.50;;;;;;;;;;4992673;28;20241;-78
2023/09/25 02:46:56;;;;;;;6.35;3.58;;;;;;;;;;4992560;28;20202;-78
2023/09/25 02:49:25;;;;;;;7.35;3.70;;;;;;;;;;4992127;28;20743;-78
2023/09/25 02:51:52;;;;;;;9.83;3.50;;;;;;;;;;4992005;28;20723;-77
2023/09/25 02:54:19;;;;;;;7.10;3.20;;;;;;;;;;4992022;28;20313;-78
2023/09/25 02:56:47;;;;;;;6.55;3.33;;;;;;;;;;4991730;28;20252;-78
2023/09/25 02:59:14;;;;;;;7.57;3.43;;;;;;;;;;4992696;28;20288;-79
2023/09/25 03:01:41;;;;;;;7.28;3.45;;;;;;;;;;4991114;28;20209;-77
2023/09/25 03:04:08;;;;;;;9.03;3.63;;;;;;;;;;4991673;28;20633;-78
2023/09/25 03:06:37;;;;;;;6.82;3.63;;;;;;;;;;4992006;28;20199;-78
2023/09/25 03:09:06;;;;;;;6.13;3.50;;;;;;;;;;4992136;28;20202;-78
2023/09/25 03:11:33;;;;;;;5.03;2.93;;;;;;;;;;4991817;28;20329;-78
2023/09/25 03:14:00;;;;;;;6.90;3.28;;;;;;;;;;4992177;28;20202;-78
2023/09/25 03:16:28;;;;;;;8.50;3.85;;;;;;;;;;4992250;28;20202;-79
2023/09/25 03:18:55;;;;;;;7.25;3.90;;;;;;;;;;4991639;28;20261;-78
2023/09/25 03:21:22;;;;;;;10.67;3.50;;;;;;;;;;4991808;28;20620;-78
2023/09/25 03:23:51;;;;;;;6.50;3.50;;;;;;;;;;4991798;28;20295;-78
2023/09/25 03:26:19;;;;;;;10.25;4.18;;;;;;;;;;4991398;28;20198;-78
2023/09/25 03:28:47;;;;;;;7.25;3.33;;;;;;;;;;4991828;28;20198;-78
2023/09/25 03:31:15;;;;;;;5.20;3.38;;;;;;;;;;4991824;28;20676;-78
2023/09/25 03:33:43;;;;;;;8.83;4.03;;;;;;;;;;4991772;28;20198;-78
2023/09/25 03:36:11;;;;;;;6.33;3.60;;;;;;;;;;4991843;28;20204;-79
2023/09/25 03:38:38;;;;;;;4.72;3.50;;;;;;;;;;4991505;28;20208;-78
2023/09/25 03:41:07;;;;;;;5.60;3.30;;;;;;;;;;4991698;28;20346;-78
2023/09/25 03:43:34;;;;;;;7.33;3.50;;;;;;;;;;4991848;28;20272;-78
2023/09/25 03:46:02;;;;;;;6.68;3.30;;;;;;;;;;4991741;28;20202;-78
2023/09/25 03:48:29;;;;;;;8.07;3.83;;;;;;;;;;4991669;28;20285;-77
2023/09/25 03:50:56;;;;;;;7.93;3.92;;;;;;;;;;4991610;28;20253;-78
2023/09/25 03:53:23;;;;;;;5.70;3.22;;;;;;;;;;4991031;28;20660;-78
2023/09/25 03:55:51;;;;;;;8.40;3.45;;;;;;;;;;4991864;28;20197;-76
2023/09/25 03:58:19;;;;;;;5.28;3.38;;;;;;;;;;4991620;28;20241;-79
2023/09/25 04:00:46;;;;;;;6.55;3.85;;;;;;;;;;4991550;28;20233;-79
2023/09/25 04:03:14;;;;;;;6.70;3.60;;;;;;;;;;4991788;28;20225;-79
2023/09/25 04:05:41;;;;;;;6.73;3.40;;;;;;;;;;4991384;28;20298;-78
2023/09/25 04:08:08;;;;;;;5.93;3.85;;;;;;;;;;4991112;28;20248;-79
2023/09/25 04:10:36;;;;;;;7.07;3.70;;;;;;;;;;4991267;28;20653;-79
2023/09/25 04:13:03;;;;;;;7.30;3.50;;;;;;;;;;4993580;28;20277;-79
2023/09/25 04:15:32;;;;;;;6.05;3.75;;;;;;;;;;4994983;28;20720;-79
2023/09/25 04:17:59;;;;;;;5.77;3.27;;;;;;;;;;4995190;28;20204;-78
2023/09/25 04:20:26;;;;;;;7.15;3.65;;;;;;;;;;4995265;28;20272;-78
2023/09/25 04:22:56;;;;;;;6.88;3.38;;;;;;;;;;4994462;28;20655;-78
2023/09/25 04:25:24;;;;;;;11.68;3.78;;;;;;;;;;4995534;28;20205;-78
2023/09/25 04:27:52;;;;;;;7.70;3.80;;;;;;;;;;4995174;28;20198;-78
2023/09/25 04:30:20;;;;;;;7.65;3.67;;;;;;;;;;4994885;28;20677;-78
2023/09/25 04:32:49;;;;;;;7.22;3.60;;;;;;;;;;4994689;28;20198;-78
2023/09/25 04:35:18;;;;;;;6.03;3.78;;;;;;;;;;4994898;28;20194;-77
2023/09/25 04:37:45;;;;;;;6.90;3.30;;;;;;;;;;4994502;28;20586;-78
2023/09/25 04:40:15;;;;;;;7.68;3.50;;;;;;;;;;4994476;28;20261;-78
2023/09/25 04:42:42;;;;;;;7.22;3.53;;;;;;;;;;4987479;28;20265;-78
2023/09/25 04:45:13;;;;;;;5.28;3.65;;;;;;;;;;4982870;28;20293;-78
2023/09/25 04:47:41;;;;;;;7.88;4.60;;;;;;;;;;4975137;28;20202;-77
2023/09/25 04:50:10;;;;;;;9.27;4.38;;;;;;;;;;4975176;28;20205;-77
2023/09/25 04:52:38;;;;;;;6.20;3.40;;;;;;;;;;4974953;28;20198;-77
2023/09/25 04:55:06;;;;;;;6.88;3.42;;;;;;;;;;4974920;28;20206;-78
2023/09/25 04:57:33;;;;;;;8.68;3.70;;;;;;;;;;4974925;28;20225;-79
2023/09/25 05:00:05;;;;;;;8.05;3.53;;;;;;;;;;4974911;28;20199;-78
2023/09/25 05:02:32;;;;;;;8.02;3.50;;;;;;;;;;4975039;28;20262;-78
2023/09/25 05:04:59;;;;;;;7.63;3.83;;;;;;;;;;4974865;28;20269;-79
2023/09/25 05:07:28;;;;;;;6.57;3.63;;;;;;;;;;4974395;28;20622;-78
2023/09/25 05:09:55;;;;;;;8.43;3.30;;;;;;;;;;4974444;28;20673;-79
2023/09/25 05:12:22;;;;;;;7.03;3.60;;;;;;;;;;4977060;28;20256;-78
2023/09/25 05:14:49;;;;;;;7.70;3.53;;;;;;;;;;4994168;28;20205;-79
2023/09/25 05:17:17;;;;;;;8.48;4.38;;;;;;;;;;4994016;28;20202;-79
2023/09/25 05:19:44;;;;;;;7.20;3.58;;;;;;;;;;4993848;28;20198;-79
2023/09/25 05:22:11;;;;;;;8.57;4.20;;;;;;;;;;4993552;28;20233;-78
2023/09/25 05:24:40;;;;;;;7.07;3.72;;;;;;;;;;4993049;28;20324;-79
2023/09/25 05:27:07;;;;;;;7.70;3.63;;;;;;;;;;4992554;28;20247;-77
2023/09/25 05:29:36;;;;;;;7.03;3.50;;;;;;;;;;4993788;28;20202;-78
2023/09/25 05:32:05;;;;;;;6.82;3.42;;;;;;;;;;4993308;28;20198;-78
2023/09/25 05:34:32;;;;;;;6.00;3.53;;;;;;;;;;4992538;28;20237;-79
2023/09/25 05:36:59;;;;;;;8.18;4.00;;;;;;;;;;4993439;28;20778;-78
2023/09/25 05:39:28;;;;;;;8.07;4.03;;;;;;;;;;4995234;28;20260;-78
2023/09/25 05:41:56;;;;;;;7.88;3.95;;;;;;;;;;5002758;28;20237;-76
2023/09/25 05:44:24;;;;;;;7.05;3.75;;;;;;;;;;5005112;28;20723;-77
2023/09/25 05:46:50;;;;;;;7.35;4.25;;;;;;;;;;5012746;28;20197;-79
2023/09/25 05:49:17;;;;;;;10.38;4.22;;;;;;;;;;5012741;28;20205;-79
2023/09/25 05:51:45;;;;;;;8.77;4.22;;;;;;;;;;4976363;28;20272;-78
2023/09/25 05:54:11;;;;;;;9.20;4.25;;;;;;;;;;4961374;28;20285;-78
2023/09/25 05:56:38;;;;;;;11.77;4.97;;;;;;;;;;4974540;28;20297;-79
2023/09/25 05:59:08;;;;;;;11.10;5.13;;;;;;;;;;4973917;28;20333;-78
2023/09/25 06:01:35;;;;;;;10.77;4.88;;;;;;;;;;4979744;28;20230;-79
2023/09/25 06:04:02;;;;;;;15.10;5.70;;;;;;;;;;4986653;28;20744;-79
2023/09/25 06:06:30;;;;;;;14.63;5.00;;;;;;;;;;4980353;28;20228;-79
2023/09/25 06:08:57;;;;;;;17.05;6.03;;;;;;;;;;4969503;28;20207;-77
2023/09/25 06:11:24;;;;;;;15.25;6.57;;;;;;;;;;4976715;28;20197;-77
2023/09/25 06:13:51;;;;;;;12.63;5.82;;;;;;;;;;4975960;28;20720;-78
2023/09/25 06:16:20;;;;;;;15.40;6.03;;;;;;;;;;4969960;28;20218;-78
2023/09/25 06:18:47;;;;;;;17.98;6.80;;;;;;;;;;4983582;28;21160;-78
2023/09/25 06:21:16;;;;;;;17.73;6.72;;;;;;;;;;4980203;28;20229;-79
2023/09/25 06:23:43;;;;;;;16.90;7.45;;;;;;;;;;4966315;28;20723;-77
2023/09/25 06:26:11;;;;;;;16.07;7.17;;;;;;;;;;4953279;28;20294;-77
2023/09/25 06:28:38;;;;;;;12.80;6.07;;;;;;;;;;4959921;28;20593;-78
2023/09/25 06:31:05;;;;;;;15.20;6.32;;;;;;;;;;4953674;28;20208;-78
2023/09/25 06:33:34;;;;;;;17.60;6.75;;;;;;;;;;4971582;28;20202;-78
2023/09/25 06:36:02;;;;;;;19.95;7.68;;;;;;;;;;4968145;28;20628;-78
2023/09/25 06:38:29;;;;;;;14.77;6.68;;;;;;;;;;4959654;28;20669;-78
2023/09/25 06:40:56;;;;;;;15.65;6.63;;;;;;;;;;4972473;28;20249;-79
2023/09/25 06:43:23;;;;;;;18.77;7.85;;;;;;;;;;4962421;28;20225;-78
2023/09/25 06:45:51;;;;;;;15.80;7.10;;;;;;;;;;4953068;29;20199;-77
2023/09/25 06:48:18;;;;;;;25.88;8.00;;;;;;;;;;4953450;29;20199;-79
2023/09/25 06:50:47;;;;;;;19.08;7.80;;;;;;;;;;4964686;28;20749;-79
2023/09/25 06:53:14;;;;;;;21.88;7.85;;;;;;;;;;4972116;28;20649;-79
2023/09/25 06:55:43;;;;;;;19.38;8.35;;;;;;;;;;4972124;28;20928;-79
2023/09/25 06:58:10;;;;;;;18.50;7.63;;;;;;;;;;4972400;28;20293;-78
2023/09/25 07:00:38;;;;;;;17.25;7.25;;;;;;;;;;4968521;28;20211;-77
2023/09/25 07:03:05;;;;;;;12.13;7.63;;;;;;;;;;4959572;28;20286;-78
2023/09/25 07:05:33;;;;;;;16.42;7.25;;;;;;;;;;4960390;28;20242;-78
2023/09/25 07:08:01;;;;;;;15.40;7.38;;;;;;;;;;4957675;28;20217;-78
2023/09/25 07:10:30;;;;;;;18.23;8.40;;;;;;;;;;4972712;28;20261;-79
2023/09/25 07:12:57;;;;;;;16.08;7.45;;;;;;;;;;4971896;28;20202;-78
2023/09/25 07:15:24;;;;;;;17.45;8.10;;;;;;;;;;4972017;28;20199;-78
2023/09/25 07:17:52;;;;;;;18.23;8.10;;;;;;;;;;4966279;28;20199;-78
2023/09/25 07:20:19;;;;;;;16.73;8.15;;;;;;;;;;4952996;29;20262;-79
2023/09/25 07:22:46;;;;;;;19.08;8.73;;;;;;;;;;4960091;28;20240;-79
2023/09/25 07:25:15;;;;;;;15.07;7.20;;;;;;;;;;4972359;28;20296;-78
2023/09/25 07:27:42;;;;;;;15.95;7.75;;;;;;;;;;4972078;28;20294;-79
2023/09/25 07:30:10;;;;;;;13.60;7.05;;;;;;;;;;4971985;28;20282;-78
2023/09/25 07:32:39;;;;;;;15.00;6.90;;;;;;;;;;4971303;28;20250;-77
2023/09/25 07:35:09;;;;;;;12.25;6.32;;;;;;;;;;4971861;28;20741;-78
2023/09/25 07:37:37;;;;;;;11.98;6.18;;;;;;;;;;4972367;28;20210;-79
2023/09/25 07:40:09;;;;;;;14.40;6.40;;;;;;;;;;4971870;28;20230;-79
2023/09/25 07:42:38;;;;;;;15.70;6.30;;;;;;;;;;4971963;28;20205;-79
2023/09/25 07:45:09;;;;;;;13.77;6.10;;;;;;;;;;4972023;28;20238;-78
2023/09/25 07:47:38;;;;;;;15.95;6.35;;;;;;;;;;4973530;28;20681;-78
2023/09/25 07:50:10;;;;;;;15.90;6.43;;;;;;;;;;4975400;28;20241;-78
2023/09/25 07:52:37;;;;;;;10.82;5.10;;;;;;;;;;4984450;28;20201;-79
2023/09/25 07:55:07;;;;;;;13.13;5.47;;;;;;;;;;4979438;28;20260;-77
2023/09/25 07:57:35;;;;;;;11.07;6.00;;;;;;;;;;4983371;28;20689;-78
2023/09/25 08:00:10;;;;;;;8.85;5.10;;;;;;;;;;4994303;28;20204;-78
2023/09/25 08:02:41;;;;;;;13.73;5.80;;;;;;;;;;4994530;28;20600;-78
2023/09/25 08:05:10;;;;;;;11.23;5.30;;;;;;;;;;4994653;28;20618;-78
2023/09/25 08:07:37;;;;;;;13.55;5.85;;;;;;;;;;4994867;28;20201;-79
2023/09/25 08:10:05;;;;;;;15.05;6.38;;;;;;;;;;4994980;28;20237;-77
2023/09/25 08:12:32;;;;;;;12.55;5.40;;;;;;;;;;4994916;28;20299;-78
2023/09/25 08:14:59;;;;;;;11.77;5.30;;;;;;;;;;4994409;28;20209;-78
2023/09/25 08:17:28;;;;;;;10.52;4.82;;;;;;;;;;4994805;28;20669;-78
2023/09/25 08:19:55;;;;;;;11.02;5.40;;;;;;;;;;4994536;28;20206;-79
2023/09/25 08:22:23;;;;;;;7.75;4.03;;;;;;;;;;4994444;28;20659;-79
2023/09/25 08:24:50;;;;;;;10.85;4.65;;;;;;;;;;4994777;28;20230;-78
2023/09/25 08:27:17;;;;;;;8.75;4.18;;;;;;;;;;4994306;28;20672;-78
2023/09/25 08:29:45;;;;;;;10.25;4.28;;;;;;;;;;4993674;28;20197;-78
2023/09/25 08:32:13;;;;;;;11.02;5.20;;;;;;;;;;4994141;28;20677;-78
2023/09/25 08:34:42;;;;;;;11.50;4.78;;;;;;;;;;4994904;28;20197;-77
2023/09/25 08:37:09;;;;;;;15.55;6.18;;;;;;;;;;4994563;28;20201;-79
2023/09/25 08:39:36;;;;;;;10.85;5.03;;;;;;;;;;4989777;28;20666;-79
2023/09/25 08:42:04;;;;;;;12.50;6.05;;;;;;;;;;4994378;28;20202;-78
2023/09/25 08:44:31;;;;;;;14.82;7.15;;;;;;;;;;4992643;28;20234;-79
2023/09/25 08:46:58;;;;;;;14.88;7.15;;;;;;;;;;4994458;28;20206;-79
2023/09/25 08:49:25;;;;;;;14.15;6.88;;;;;;;;;;4994258;28;20197;-79
2023/09/25 08:51:55;;;;;;;14.27;6.65;;;;;;;;;;4994255;28;20225;-79
2023/09/25 08:54:22;;;;;;;11.15;6.50;;;;;;;;;;4989334;28;20301;-78
2023/09/25 08:56:49;;;;;;;11.02;6.68;;;;;;;;;;4974747;28;20569;-78
2023/09/25 08:59:17;;;;;;;12.15;6.03;;;;;;;;;;4973355;28;20245;-79
2023/09/25 09:01:44;;;;;;;10.88;6.22;;;;;;;;;;4974276;28;20198;-78
2023/09/25 09:04:12;;;;;;;17.15;7.20;;;;;;;;;;4974366;28;20289;-77
2023/09/25 09:06:40;;;;;;;11.07;5.72;;;;;;;;;;4974285;28;20960;-78
2023/09/25 09:09:09;;;;;;;10.55;5.50;;;;;;;;;;4974822;28;20194;-78
2023/09/25 09:11:37;;;;;;;12.15;5.63;;;;;;;;;;4973895;28;20619;-78
2023/09/25 09:14:04;;;;;;;10.50;5.53;;;;;;;;;;4973635;28;20198;-78
2023/09/25 09:16:31;;;;;;;12.18;5.28;;;;;;;;;;4974478;28;20254;-78
2023/09/25 09:19:07;;;;;;;9.90;4.95;;;;;;;;;;4988662;28;20206;-78
2023/09/25 09:21:34;;;;;;;10.60;5.28;;;;;;;;;;4993601;28;20252;-78
2023/09/25 09:24:01;;;;;;;9.50;5.43;;;;;;;;;;4981404;28;20234;-78
2023/09/25 09:26:30;;;;;;;12.70;5.20;;;;;;;;;;4974331;28;20237;-78
2023/09/25 09:28:57;;;;;;;12.07;5.68;;;;;;;;;;4973480;28;20713;-79
2023/09/25 09:31:25;;;;;;;11.63;5.68;;;;;;;;;;4974018;28;20206;-78
2023/09/25 09:33:55;;;;;;;8.82;5.60;;;;;;;;;;4973248;28;20257;-79
2023/09/25 09:36:23;;;;;;;10.23;5.65;;;;;;;;;;4976662;28;20265;-79
2023/09/25 09:38:50;;;;;;;11.48;4.97;;;;;;;;;;4973198;28;20306;-77
2023/09/25 09:41:18;;;;;;;11.20;5.47;;;;;;;;;;4979934;28;20253;-77
2023/09/25 09:43:48;;;;;;;10.27;5.75;;;;;;;;;;4979974;28;20210;-78
2023/09/25 09:46:17;;;;;;;11.55;5.63;;;;;;;;;;4973579;28;20277;-78
2023/09/25 09:48:46;;;;;;;8.50;5.10;;;;;;;;;;4973245;28;20234;-78
2023/09/25 09:51:13;;;;;;;10.27;4.50;;;;;;;;;;4973690;28;20249;-78
2023/09/25 09:53:41;;;;;;;8.88;4.20;;;;;;;;;;4973486;28;20223;-78
2023/09/25 09:56:08;;;;;;;8.88;4.10;;;;;;;;;;4973055;28;20331;-78
2023/09/25 09:58:38;;;;;;;12.00;4.97;;;;;;;;;;4973297;28;20286;-78
2023/09/25 10:01:07;;;;;;;12.43;5.93;;;;;;;;;;4983603;28;20276;-77
2023/09/25 10:03:34;;;;;;;7.32;4.75;;;;;;;;;;4993291;28;20210;-78
2023/09/25 10:06:02;;;;;;;12.60;5.35;;;;;;;;;;4992131;28;20287;-76
2023/09/25 10:08:31;;;;;;;12.20;5.07;;;;;;;;;;4993199;28;20198;-78
2023/09/25 10:11:15;;;;;;;10.68;4.00;;;;;;;;;;4977968;28;20253;-77
2023/09/25 10:13:43;;;;;;;11.23;3.13;;;;;;;;;;4991199;28;20681;-77
2023/09/25 10:16:12;;;;;;;12.98;3.95;;;;;;;;;;4991818;28;20268;-77
2023/09/25 10:18:40;;;;;;;8.65;2.75;;;;;;;;;;4991222;28;20610;-77
2023/09/25 10:21:13;;;;;;;9.20;3.20;;;;;;;;;;4991679;28;20212;-78
2023/09/25 10:23:42;;;;;;;8.50;2.55;;;;;;;;;;4988429;28;20313;-78
2023/09/25 10:26:16;;;;;;;9.80;2.85;;;;;;;;;;4991089;28;20708;-79
2023/09/25 10:28:44;;;;;;;5.97;2.42;;;;;;;;;;4989343;28;20193;-78
2023/09/25 10:31:21;;;;;;;9.18;2.63;;;;;;;;;;4991178;28;20251;-78
2023/09/25 10:33:54;;;;;;;7.30;2.40;;;;;;;;;;4989598;28;20672;-77
2023/09/25 10:36:22;;;;;;;7.13;2.53;;;;;;;;;;4989042;28;20236;-78
2023/09/25 10:38:53;;;;;;;7.40;2.40;;;;;;;;;;4991090;28;20681;-78
2023/09/25 10:41:23;;;;;;;8.73;2.90;;;;;;;;;;4988394;28;20220;-78
2023/09/25 10:43:50;;;;;;;8.93;2.92;;;;;;;;;;4991133;28;20631;-78
2023/09/25 10:46:18;;;;;;;7.13;2.78;;;;;;;;;;4991427;28;20268;-78
2023/09/25 10:48:48;;;;;;;7.28;2.30;;;;;;;;;;4990849;28;20194;-77
2023/09/25 10:51:16;;;;;;;5.65;2.10;;;;;;;;;;4991322;28;20335;-78
2023/09/25 10:53:44;;;;;;;6.65;2.40;;;;;;;;;;4990217;28;20256;-78
2023/09/25 10:56:12;;;;;;;9.48;2.90;;;;;;;;;;4990869;28;20256;-77
2023/09/25 10:58:39;;;;;;;7.38;3.28;;;;;;;;;;4988262;28;20194;-78
2023/09/25 11:01:06;;;;;;;10.13;3.38;;;;;;;;;;4990922;28;20205;-77
2023/09/25 11:03:34;;;;;;;6.47;2.40;;;;;;;;;;4990614;28;20719;-77
2023/09/25 11:06:02;;;;;;;6.22;2.35;;;;;;;;;;4990515;28;20282;-78
2023/09/25 11:08:30;;;;;;;7.10;2.30;;;;;;;;;;4990154;28;20197;-77
2023/09/25 11:10:57;;;;;;;7.68;2.45;;;;;;;;;;4990897;28;20201;-78
2023/09/25 11:13:24;;;;;;;8.50;2.47;;;;;;;;;;4991575;28;20202;-77
2023/09/25 11:15:52;;;;;;;5.95;2.30;;;;;;;;;;4991839;28;20284;-77
2023/09/25 11:18:20;;;;;;;7.50;2.67;;;;;;;;;;4987023;28;20723;-78
2023/09/25 11:20:48;;;;;;;11.95;2.53;;;;;;;;;;4980846;28;20292;-78
2023/09/25 11:23:17;;;;;;;7.22;2.25;;;;;;;;;;4990458;28;20273;-79
2023/09/25 11:25:46;;;;;;;6.50;2.20;;;;;;;;;;4991483;28;20225;-78
2023/09/25 11:28:14;;;;;;;6.50;2.00;;;;;;;;;;4991399;28;20236;-78
2023/09/25 11:30:42;;;;;;;5.57;1.90;;;;;;;;;;4991505;28;20201;-79
2023/09/25 11:33:10;;;;;;;5.15;1.80;;;;;;;;;;4991540;28;20194;-79
2023/09/25 11:35:39;;;;;;;5.50;2.00;;;;;;;;;;4991369;28;20229;-78
2023/09/25 11:38:12;;;;;;;7.18;2.22;;;;;;;;;;4990846;28;20194;-79
2023/09/25 11:40:41;;;;;;;7.53;2.53;;;;;;;;;;4991233;28;20237;-78
2023/09/25 11:43:09;;;;;;;6.78;2.28;;;;;;;;;;4991697;28;20252;-78
2023/09/25 11:45:36;;;;;;;4.65;2.10;;;;;;;;;;4991349;28;20738;-79
2023/09/25 11:48:04;;;;;;;6.80;2.30;;;;;;;;;;4991478;28;20256;-79
2023/09/25 11:50:31;;;;;;;5.28;1.88;;;;;;;;;;4991142;28;20664;-79
2023/09/25 11:52:58;;;;;;;3.75;2.00;;;;;;;;;;4990554;28;20206;-78
2023/09/25 11:55:26;;;;;;;6.70;2.17;;;;;;;;;;4988234;28;20202;-78
2023/09/25 11:57:54;;;;;;;6.93;1.92;;;;;;;;;;4988918;28;20283;-78
2023/09/25 12:00:23;;;;;;;6.53;2.30;;;;;;;;;;4991187;28;20194;-78
2023/09/25 12:02:51;;;;;;;4.38;2.20;;;;;;;;;;4972283;28;20266;-78
2023/09/25 12:05:19;;;;;;;5.88;1.85;;;;;;;;;;4971624;28;20202;-78
2023/09/25 12:07:47;;;;;;;4.03;1.75;;;;;;;;;;4971828;28;20564;-79
2023/09/25 12:10:16;;;;;;;8.85;2.75;;;;;;;;;;4974319;28;20768;-78
2023/09/25 12:12:44;;;;;;;8.52;2.92;;;;;;;;;;4990916;28;20248;-78
2023/09/25 12:15:13;;;;;;;8.00;3.47;;;;;;;;;;4990889;28;20198;-78
2023/09/25 12:17:40;;;;;;;7.30;4.30;;;;;;;;;;4991340;28;20213;-78
2023/09/25 12:20:11;;;;;;;9.88;4.95;;;;;;;;;;4989046;28;20206;-79
2023/09/25 12:22:40;;;;;;;8.50;4.35;;;;;;;;;;4970980;28;20289;-78
2023/09/25 12:25:09;;;;;;;8.93;3.10;;;;;;;;;;4971534;28;20253;-79
2023/09/25 12:27:36;;;;;;;6.78;2.45;;;;;;;;;;4971360;28;20695;-78
2023/09/25 12:30:04;;;;;;;4.43;2.25;;;;;;;;;;4971864;28;20619;-77
2023/09/25 12:32:32;;;;;;;5.53;1.92;;;;;;;;;;4971549;28;20195;-78
2023/09/25 12:34:59;;;;;;;5.53;2.17;;;;;;;;;;4974916;28;20206;-78
2023/09/25 12:37:28;;;;;;;7.13;2.13;;;;;;;;;;4974347;28;20635;-78
2023/09/25 12:39:56;;;;;;;6.85;2.17;;;;;;;;;;4974840;28;20699;-79
2023/09/25 12:42:23;;;;;;;5.72;1.60;;;;;;;;;;4975037;28;20206;-78
2023/09/25 12:44:50;;;;;;;4.32;1.90;;;;;;;;;;4975164;28;20202;-78
2023/09/25 12:47:18;;;;;;;4.35;1.73;;;;;;;;;;4974838;28;20273;-78
2023/09/25 12:49:48;;;;;;;4.47;1.75;;;;;;;;;;4974124;28;20273;-78
2023/09/25 12:52:15;;;;;;;6.05;1.80;;;;;;;;;;4993545;28;20209;-78
2023/09/25 12:54:42;;;;;;;3.85;1.65;;;;;;;;;;4993977;28;20623;-78
2023/09/25 12:57:09;;;;;;;5.82;1.90;;;;;;;;;;4994364;28;20270;-79
2023/09/25 12:59:37;;;;;;;4.43;1.48;;;;;;;;;;4994372;28;20193;-78
2023/09/25 13:02:04;;;;;;;5.30;1.70;;;;;;;;;;4994089;28;20548;-78
2023/09/25 13:04:32;;;;;;;3.92;1.77;;;;;;;;;;4993955;28;20252;-79
2023/09/25 13:07:01;;;;;;;5.63;1.80;;;;;;;;;;4993756;28;20233;-77
2023/09/25 13:09:28;;;;;;;4.28;1.88;;;;;;;;;;4994033;28;20229;-77
2023/09/25 13:11:55;;;;;;;6.25;2.10;;;;;;;;;;4994025;28;20260;-78
2023/09/25 13:14:23;;;;;;;5.38;2.00;;;;;;;;;;4993476;28;20197;-77
2023/09/25 13:16:50;;;;;;;5.75;2.17;;;;;;;;;;4993616;28;20202;-78
2023/09/25 13:19:17;;;;;;;5.45;1.98;;;;;;;;;;4993198;28;20692;-78
2023/09/25 13:21:44;;;;;;;4.68;1.90;;;;;;;;;;4993942;28;20252;-79
2023/09/25 13:24:13;;;;;;;8.07;2.08;;;;;;;;;;4993263;28;20226;-78
2023/09/25 13:26:40;;;;;;;5.00;1.90;;;;;;;;;;4993873;28;20280;-76
2023/09/25 13:29:07;;;;;;;5.40;2.00;;;;;;;;;;4993235;28;20747;-79
2023/09/25 13:31:35;;;;;;;5.68;2.10;;;;;;;;;;4993079;28;20225;-77
2023/09/25 13:34:02;;;;;;;4.80;1.98;;;;;;;;;;4993519;28;20237;-78
2023/09/25 13:36:32;;;;;;;4.40;1.75;;;;;;;;;;4993486;28;20265;-79
2023/09/25 13:38:59;;;;;;;5.53;1.90;;;;;;;;;;4993150;28;20202;-78
2023/09/25 13:41:27;;;;;;;4.57;1.90;;;;;;;;;;4993587;28;20244;-78
2023/09/25 13:43:55;;;;;;;4.90;1.85;;;;;;;;;;4993369;28;20252;-78
2023/09/25 13:46:22;;;;;;;7.00;2.10;;;;;;;;;;4992059;28;20268;-78
2023/09/25 13:48:49;;;;;;;4.82;1.70;;;;;;;;;;4992064;28;20204;-78
2023/09/25 13:51:16;;;;;;;5.63;1.90;;;;;;;;;;4993376;28;20201;-78
2023/09/25 13:53:43;;;;;;;4.53;1.80;;;;;;;;;;4993263;28;20288;-79
2023/09/25 13:56:11;;;;;;;6.28;1.70;;;;;;;;;;4993245;28;20641;-79
2023/09/25 13:58:39;;;;;;;6.32;2.25;;;;;;;;;;4993087;28;20202;-78
2023/09/25 14:01:07;;;;;;;7.95;2.13;;;;;;;;;;4993203;28;20252;-78
2023/09/25 14:03:34;;;;;;;6.32;2.67;;;;;;;;;;4992549;28;20200;-77
2023/09/25 14:06:05;;;;;;;6.72;2.38;;;;;;;;;;4992907;28;20230;-79
2023/09/25 14:08:32;;;;;;;4.95;1.80;;;;;;;;;;4993465;28;20201;-78
2023/09/25 14:11:00;;;;;;;4.40;1.85;;;;;;;;;;4992277;28;20210;-78
2023/09/25 14:13:27;;;;;;;4.85;1.50;;;;;;;;;;4992424;28;20202;-78
2023/09/25 14:15:56;;;;;;;4.43;1.60;;;;;;;;;;4992360;28;20225;-78
2023/09/25 14:18:24;;;;;;;5.07;1.70;;;;;;;;;;4992302;28;20296;-78
2023/09/25 14:20:51;;;;;;;3.33;1.42;;;;;;;;;;4992696;28;20198;-78
2023/09/25 14:23:18;;;;;;;3.53;1.70;;;;;;;;;;4992550;28;20268;-78
2023/09/25 14:25:46;;;;;;;5.28;1.90;;;;;;;;;;4992866;28;20205;-79
2023/09/25 14:28:13;;;;;;;3.67;1.45;;;;;;;;;;4992533;28;20252;-78
2023/09/25 14:30:40;;;;;;;6.38;1.48;;;;;;;;;;4992309;28;20739;-77
2023/09/25 14:33:09;;;;;;;3.50;1.40;;;;;;;;;;4991671;28;20244;-78
2023/09/25 14:35:36;;;;;;;3.95;1.60;;;;;;;;;;4992247;28;20206;-78
2023/09/25 14:38:05;;;;;;;3.83;1.65;;;;;;;;;;4992185;28;20268;-79
2023/09/25 14:40:33;;;;;;;5.80;1.58;;;;;;;;;;4978089;28;20276;-78
2023/09/25 14:43:03;;;;;;;5.72;1.80;;;;;;;;;;4984786;28;20217;-78